Time;durP1;ratioP1;P1;durP2;ratioP2;P2;SDS_P1;SDS_P2;PMS_P1;PMS_P2;Temp;Humidity;BMP_temperature;BMP_pressure;BME280_temperature;BME280_humidity;BME280_pressure;Samples;Min_cycle;Max_cycle;Signal;HPM_P1;HPM_P2
2022/12/22 03:25:55;;;;;;;2.83;2.63;;;13.00;99.90;;;;;;5035142;28;20222;-78
2022/12/22 03:28:26;;;;;;;4.07;2.92;;;13.10;99.90;;;;;;5034720;28;20175;-79
2022/12/22 03:31:01;;;;;;;2.83;2.63;;;13.10;99.90;;;;;;5034793;28;20188;-79
2022/12/22 03:33:28;;;;;;;3.28;3.03;;;13.10;99.90;;;;;;5034990;28;20187;-79
2022/12/22 03:35:54;;;;;;;2.83;2.58;;;13.00;99.90;;;;;;5033804;28;20199;-81
2022/12/22 03:38:20;;;;;;;3.60;2.47;;;13.00;99.90;;;;;;5034492;28;20210;-78
2022/12/22 03:40:46;;;;;;;4.97;2.20;;;12.80;99.90;;;;;;5033401;28;20263;-81
2022/12/22 03:48:42;;;;;;;1.67;1.58;;;12.70;99.90;;;;;;5034772;28;20254;-78
2022/12/22 03:51:08;;;;;;;1.65;1.55;;;12.70;99.90;;;;;;5034279;28;20164;-79
2022/12/22 03:53:34;;;;;;;4.13;1.42;;;12.70;99.90;;;;;;5034517;28;20184;-79
2022/12/22 03:55:59;;;;;;;1.40;1.30;;;12.70;99.90;;;;;;5034874;28;20176;-80
2022/12/22 03:58:25;;;;;;;1.38;1.27;;;12.50;99.90;;;;;;5034181;28;20196;-82
2022/12/22 04:00:51;;;;;;;1.67;1.45;;;12.60;99.90;;;;;;5032963;28;20540;-80
2022/12/22 04:03:16;;;;;;;1.50;1.38;;;12.50;99.90;;;;;;5034319;28;20196;-79
2022/12/22 04:05:44;;;;;;;1.40;1.20;;;12.50;99.90;;;;;;5034453;28;20525;-79
2022/12/22 04:08:09;;;;;;;2.05;1.23;;;12.60;99.90;;;;;;5034303;28;20262;-79
2022/12/22 04:13:19;;;;;;;1.25;1.15;;;12.60;99.90;;;;;;5034488;28;20207;-83
2022/12/22 04:15:45;;;;;;;1.83;1.60;;;12.70;99.90;;;;;;5035208;28;20176;-82
2022/12/22 04:18:10;;;;;;;2.03;1.30;;;12.70;99.90;;;;;;5034546;28;20552;-81
2022/12/22 04:20:36;;;;;;;1.40;1.30;;;12.60;99.90;;;;;;5034331;28;20168;-81
2022/12/22 04:23:02;;;;;;;1.48;1.38;;;12.50;99.90;;;;;;5034395;28;20187;-81
2022/12/22 04:25:28;;;;;;;2.20;2.00;;;12.50;99.90;;;;;;5034532;28;20517;-79
2022/12/22 04:27:54;;;;;;;1.80;1.70;;;12.50;99.90;;;;;;5034229;28;20163;-84
2022/12/22 04:30:19;;;;;;;2.20;2.00;;;12.40;99.90;;;;;;5034226;28;20166;-81
2022/12/22 04:32:45;;;;;;;2.97;2.08;;;12.40;99.90;;;;;;5034282;28;20640;-80
2022/12/22 04:35:11;;;;;;;2.40;2.20;;;12.40;99.90;;;;;;5034352;28;20203;-84
2022/12/22 04:37:36;;;;;;;2.50;2.30;;;12.40;99.90;;;;;;5033871;28;20231;-81
2022/12/22 04:40:02;;;;;;;2.90;2.67;;;12.40;99.90;;;;;;5033659;28;20172;-81
2022/12/22 04:42:28;;;;;;;3.30;2.97;;;12.40;99.90;;;;;;5032320;28;20239;-81
2022/12/22 04:44:54;;;;;;;5.25;3.47;;;12.50;99.90;;;;;;5033711;28;20207;-80
2022/12/22 04:47:20;;;;;;;5.70;3.15;;;12.30;99.90;;;;;;5033571;28;20171;-81
2022/12/22 04:49:45;;;;;;;6.45;5.07;;;12.30;99.90;;;;;;5033830;28;20164;-82
2022/12/22 04:52:11;;;;;;;6.72;4.90;;;12.20;99.90;;;;;;5033572;28;20556;-79
2022/12/22 04:54:36;;;;;;;4.97;4.47;;;12.20;99.90;;;;;;5043245;28;20233;-83
2022/12/22 04:57:02;;;;;;;8.93;5.38;;;12.20;99.90;;;;;;5053234;28;20209;-79
2022/12/22 04:59:28;;;;;;;5.15;4.65;;;12.20;99.90;;;;;;5053147;28;20643;-81
2022/12/22 05:01:53;;;;;;;6.63;6.03;;;12.10;99.90;;;;;;5053251;28;20194;-80
2022/12/22 05:04:19;;;;;;;6.75;6.07;;;12.10;99.90;;;;;;5053210;28;20217;-79
2022/12/22 05:06:45;;;;;;;6.57;5.95;;;12.20;99.90;;;;;;5053106;28;20628;-81
2022/12/22 05:09:11;;;;;;;6.30;5.70;;;12.10;99.90;;;;;;5053524;28;20191;-83
2022/12/22 05:11:37;;;;;;;6.80;6.15;;;12.00;99.90;;;;;;5052146;28;20627;-79
2022/12/22 05:14:03;;;;;;;6.03;5.43;;;12.00;99.90;;;;;;5053352;28;20576;-79
2022/12/22 05:16:28;;;;;;;6.70;6.10;;;12.10;99.90;;;;;;5053059;28;20292;-80
2022/12/22 05:18:54;;;;;;;7.38;6.25;;;12.20;99.90;;;;;;5053371;28;20258;-79
2022/12/22 05:21:21;;;;;;;8.50;6.97;;;12.20;99.90;;;;;;5052932;28;20172;-79
2022/12/22 05:23:47;;;;;;;9.63;8.70;;;12.30;99.90;;;;;;5051939;28;20718;-80
2022/12/22 05:26:15;;;;;;;7.07;6.38;;;12.20;99.90;;;;;;5052029;28;20174;-80
2022/12/22 05:28:42;;;;;;;7.35;6.63;;;12.30;99.90;;;;;;5053459;28;20167;-79
2022/12/22 05:31:12;;;;;;;7.47;5.78;;;12.30;99.90;;;;;;5053176;28;20162;-80
2022/12/22 05:33:38;;;;;;;9.18;6.80;;;12.40;99.90;;;;;;5051418;28;20244;-80
2022/12/22 05:36:04;;;;;;;9.40;6.65;;;12.20;99.90;;;;;;5052260;28;20171;-78
2022/12/22 05:38:30;;;;;;;11.20;8.00;;;12.20;99.90;;;;;;5052599;28;20191;-80
2022/12/22 05:40:56;;;;;;;11.57;7.93;;;12.10;99.90;;;;;;5052399;28;20531;-78
2022/12/22 05:43:21;;;;;;;12.93;8.63;;;12.00;99.90;;;;;;5051956;28;20191;-79
2022/12/22 05:45:47;;;;;;;13.88;9.40;;;12.00;99.90;;;;;;5052364;28;20198;-79
2022/12/22 05:48:13;;;;;;;11.02;8.27;;;12.00;99.90;;;;;;5052449;28;20163;-78
2022/12/22 05:50:39;;;;;;;14.80;9.02;;;11.90;99.90;;;;;;5052625;28;20167;-79
2022/12/22 05:53:08;;;;;;;11.70;8.77;;;12.00;99.90;;;;;;5052049;28;20906;-78
2022/12/22 05:55:34;;;;;;;14.52;9.48;;;12.00;99.90;;;;;;5052723;28;20178;-80
2022/12/22 05:58:00;;;;;;;17.08;9.65;;;12.00;99.90;;;;;;5051904;28;20548;-80
2022/12/22 06:00:30;;;;;;;14.77;9.38;;;11.90;99.90;;;;;;5052691;28;20647;-81
2022/12/22 06:02:56;;;;;;;19.50;10.18;;;11.80;99.90;;;;;;5052562;28;20187;-78
2022/12/22 06:05:22;;;;;;;16.42;10.70;;;11.80;99.90;;;;;;5052843;28;20178;-80
2022/12/22 06:07:47;;;;;;;21.52;12.45;;;11.80;99.90;;;;;;5050806;28;20266;-79
2022/12/22 06:10:13;;;;;;;27.35;13.15;;;11.80;99.90;;;;;;5052436;28;20171;-79
2022/12/22 06:12:40;;;;;;;22.77;11.55;;;11.70;99.90;;;;;;5052250;28;20198;-78
2022/12/22 06:15:07;;;;;;;25.98;13.35;;;11.80;99.90;;;;;;5052361;28;20213;-80
2022/12/22 06:17:33;;;;;;;26.67;13.65;;;11.90;99.90;;;;;;5052331;28;20195;-80
2022/12/22 06:19:58;;;;;;;26.27;12.55;;;11.90;99.90;;;;;;5052588;28;20174;-79
2022/12/22 06:22:24;;;;;;;23.25;12.65;;;11.80;99.90;;;;;;5052510;28;20602;-79
2022/12/22 06:24:49;;;;;;;22.88;13.52;;;11.70;99.90;;;;;;5052641;28;20285;-82
2022/12/22 06:27:15;;;;;;;20.63;12.73;;;11.70;99.90;;;;;;5052333;28;20175;-79
2022/12/22 06:29:41;;;;;;;24.77;13.18;;;11.70;99.90;;;;;;5052874;28;20179;-79
2022/12/22 06:32:07;;;;;;;24.02;12.88;;;11.60;99.90;;;;;;5052814;28;20594;-82
2022/12/22 06:34:33;;;;;;;25.25;13.55;;;11.70;99.90;;;;;;5056859;28;20527;-81
2022/12/22 06:36:59;;;;;;;25.80;13.45;;;11.80;99.90;;;;;;5058453;28;20213;-82
2022/12/22 06:39:32;;;;;;;28.40;15.20;;;11.80;99.90;;;;;;5061786;28;20169;-80
2022/12/22 06:45:08;;;;;;;26.67;15.38;;;11.90;99.90;;;;;;5054852;28;20221;-83
2022/12/22 06:47:37;;;;;;;26.10;15.00;;;11.70;99.90;;;;;;5055135;28;20163;-79
2022/12/22 06:50:03;;;;;;;33.60;16.15;;;11.60;99.90;;;;;;5054296;28;20309;-83
2022/12/22 06:52:29;;;;;;;31.35;16.95;;;11.60;99.90;;;;;;5053219;28;20206;-81
2022/12/22 06:54:55;;;;;;;29.33;15.90;;;11.50;99.90;;;;;;5053803;28;20180;-83
2022/12/22 06:57:20;;;;;;;30.70;15.30;;;11.40;99.90;;;;;;5056559;28;20221;-80
2022/12/22 06:59:46;;;;;;;31.45;17.00;;;11.40;99.90;;;;;;5060636;28;20175;-81
2022/12/22 07:02:11;;;;;;;30.33;14.77;;;11.40;99.90;;;;;;5056294;28;20201;-81
2022/12/22 07:04:37;;;;;;;26.65;14.00;;;11.40;99.90;;;;;;5050647;28;20163;-80
2022/12/22 07:07:03;;;;;;;25.38;13.80;;;11.40;99.90;;;;;;5050423;28;20171;-83
2022/12/22 07:09:28;;;;;;;25.40;13.63;;;11.20;99.90;;;;;;5052892;28;20202;-82
2022/12/22 07:11:54;;;;;;;23.17;13.25;;;11.30;99.90;;;;;;5055597;28;20194;-82
2022/12/22 07:14:20;;;;;;;23.30;12.27;;;11.20;99.90;;;;;;5054066;28;20631;-79
2022/12/22 07:16:46;;;;;;;23.65;13.52;;;11.20;99.90;;;;;;5055613;28;20436;-81
2022/12/22 07:19:12;;;;;;;23.15;12.57;;;11.10;99.90;;;;;;5053902;28;20175;-84
2022/12/22 07:21:38;;;;;;;25.95;12.70;;;11.10;99.90;;;;;;5055042;28;20190;-82
2022/12/22 07:24:04;;;;;;;22.38;13.00;;;11.10;99.90;;;;;;5055582;28;20167;-82
2022/12/22 07:26:30;;;;;;;26.92;13.38;;;11.20;99.90;;;;;;5055191;28;20305;-81
2022/12/22 07:28:56;;;;;;;21.90;12.55;;;11.20;99.90;;;;;;5053943;28;20195;-81
2022/12/22 07:31:22;;;;;;;17.17;11.90;;;11.20;99.90;;;;;;5055069;28;20224;-81
2022/12/22 07:33:48;;;;;;;23.35;12.63;;;11.30;99.90;;;;;;5053853;28;20171;-83
2022/12/22 07:36:16;;;;;;;18.20;11.35;;;11.20;99.90;;;;;;5055131;28;20253;-84
2022/12/22 07:38:44;;;;;;;21.50;12.38;;;11.10;99.90;;;;;;5053536;28;20580;-83
2022/12/22 07:43:57;;;;;;;25.85;13.02;;;11.10;99.90;;;;;;5055413;28;20245;-81
2022/12/22 07:46:25;;;;;;;23.80;13.15;;;11.10;99.90;;;;;;5053677;28;20217;-81
2022/12/22 07:51:37;;;;;;;27.83;15.38;;;11.10;99.90;;;;;;5056812;28;20236;-82
2022/12/22 07:54:08;;;;;;;28.95;16.35;;;10.90;99.90;;;;;;5044712;28;20237;-80
2022/12/22 07:56:34;;;;;;;32.90;16.08;;;10.90;99.90;;;;;;5034303;28;20277;-80
2022/12/22 07:58:59;;;;;;;29.35;16.60;;;11.00;99.90;;;;;;5034377;28;20160;-83
2022/12/22 08:01:25;;;;;;;39.05;19.00;;;11.00;99.90;;;;;;5034590;28;20632;-81
2022/12/22 08:03:51;;;;;;;39.58;18.80;;;11.00;99.90;;;;;;5046805;28;20171;-81
2022/12/22 08:06:17;;;;;;;37.80;18.52;;;10.90;99.90;;;;;;5051890;28;20182;-81
2022/12/22 08:08:42;;;;;;;34.17;16.73;;;10.80;99.90;;;;;;5054826;28;20191;-81
2022/12/22 08:11:08;;;;;;;40.58;18.00;;;10.70;99.90;;;;;;5048615;28;20187;-84
2022/12/22 08:13:34;;;;;;;37.33;17.52;;;10.70;99.90;;;;;;5052534;28;20394;-81
2022/12/22 08:16:04;;;;;;;32.67;16.00;;;10.80;99.90;;;;;;5054009;28;20292;-83
2022/12/22 08:18:30;;;;;;;34.17;16.35;;;10.90;99.90;;;;;;5052797;28;20186;-81
2022/12/22 08:20:56;;;;;;;34.97;16.33;;;10.90;99.90;;;;;;5057300;28;20175;-80
2022/12/22 08:23:21;;;;;;;48.33;22.77;;;10.90;99.90;;;;;;5054341;28;20199;-82
2022/12/22 08:25:54;;;;;;;40.47;21.40;;;11.00;99.90;;;;;;5055406;28;20237;-79
2022/12/22 08:28:19;;;;;;;40.60;17.73;;;11.00;99.90;;;;;;5052919;28;20171;-82
2022/12/22 08:30:45;;;;;;;36.90;18.67;;;11.00;99.90;;;;;;5053619;28;20251;-80
2022/12/22 08:33:11;;;;;;;38.78;18.60;;;11.00;99.90;;;;;;5052324;28;20210;-83
2022/12/22 08:35:37;;;;;;;41.67;20.50;;;11.00;99.90;;;;;;5051901;28;20174;-80
2022/12/22 08:38:04;;;;;;;44.22;22.08;;;11.00;99.90;;;;;;5053067;28;20737;-82
2022/12/22 08:40:31;;;;;;;42.30;18.10;;;11.00;99.90;;;;;;5053120;28;20650;-81
2022/12/22 08:43:01;;;;;;;36.80;18.02;;;11.00;99.90;;;;;;5051086;28;20551;-80
2022/12/22 08:45:27;;;;;;;40.13;18.38;;;10.80;99.90;;;;;;5051515;28;20175;-80
2022/12/22 08:47:52;;;;;;;34.33;18.42;;;10.90;99.90;;;;;;5051447;28;20167;-82
2022/12/22 08:50:18;;;;;;;32.70;16.52;;;11.00;99.90;;;;;;5053283;28;20164;-80
2022/12/22 08:52:44;;;;;;;36.63;16.48;;;11.00;99.90;;;;;;5052871;28;20270;-82
2022/12/22 08:55:09;;;;;;;30.83;16.00;;;10.90;99.90;;;;;;5051556;28;20239;-81
2022/12/22 08:57:35;;;;;;;32.08;16.75;;;11.00;99.90;;;;;;5051865;28;20207;-82
2022/12/22 09:00:01;;;;;;;30.27;17.10;;;11.00;99.90;;;;;;5052385;28;20209;-82
2022/12/22 09:02:26;;;;;;;31.20;16.00;;;11.10;99.90;;;;;;5052925;28;20671;-81
2022/12/22 09:04:52;;;;;;;29.40;16.02;;;11.10;99.90;;;;;;5053158;28;20568;-80
2022/12/22 09:07:18;;;;;;;33.80;18.40;;;11.30;99.90;;;;;;5053106;28;20172;-81
2022/12/22 09:09:44;;;;;;;38.55;16.30;;;11.40;99.90;;;;;;5051831;28;20163;-83
2022/12/22 09:12:10;;;;;;;25.50;15.30;;;11.60;99.90;;;;;;5051757;28;20217;-80
2022/12/22 09:14:35;;;;;;;24.27;12.73;;;11.60;99.90;;;;;;5051789;28;20182;-82
2022/12/22 09:17:01;;;;;;;19.80;12.82;;;11.50;99.90;;;;;;5053180;28;20213;-81
2022/12/22 09:19:27;;;;;;;42.00;13.45;;;11.40;99.90;;;;;;5053177;28;20171;-81
2022/12/22 09:21:53;;;;;;;18.33;10.98;;;11.20;99.90;;;;;;5052714;28;20228;-80
2022/12/22 09:24:19;;;;;;;25.10;10.80;;;11.10;99.90;;;;;;5052461;28;20159;-81
2022/12/22 09:26:45;;;;;;;11.07;8.63;;;11.20;99.90;;;;;;5052856;28;20159;-81
2022/12/22 09:29:11;;;;;;;17.80;10.77;;;11.30;99.90;;;;;;5051702;28;20262;-82
2022/12/22 09:31:36;;;;;;;12.50;10.23;;;11.30;99.90;;;;;;5052972;28;20516;-81
2022/12/22 09:34:02;;;;;;;21.98;10.02;;;11.40;99.90;;;;;;5051806;28;20220;-81
2022/12/22 09:36:30;;;;;;;10.75;8.68;;;11.50;99.90;;;;;;5051354;28;20260;-82
2022/12/22 09:38:56;;;;;;;18.33;8.80;;;11.40;99.90;;;;;;5051367;28;20167;-81
2022/12/22 09:41:33;;;;;;;18.35;9.82;;;11.40;99.90;;;;;;5052734;28;20178;-82
2022/12/22 09:44:12;;;;;;;19.00;9.93;;;11.50;99.90;;;;;;5052814;28;20320;-80
2022/12/22 09:46:39;;;;;;;14.90;10.57;;;11.60;99.90;;;;;;5051536;28;20178;-81
2022/12/22 09:49:05;;;;;;;15.88;10.65;;;11.80;99.90;;;;;;5051048;28;20182;-81
2022/12/22 09:51:38;;;;;;;21.58;12.52;;;11.80;99.90;;;;;;5050688;28;20321;-81
2022/12/22 09:54:03;;;;;;;20.23;11.65;;;11.70;99.90;;;;;;5052501;28;20639;-80
2022/12/22 09:56:29;;;;;;;16.90;11.77;;;11.60;99.90;;;;;;5052400;28;20203;-79
2022/12/22 09:58:57;;;;;;;23.83;13.10;;;11.60;99.90;;;;;;5052565;28;20168;-80
2022/12/22 10:01:36;;;;;;;19.17;13.75;;;11.50;99.90;;;;;;5050868;28;20186;-82
2022/12/22 10:04:32;;;;;;;18.85;12.82;;;11.70;99.90;;;;;;5050744;28;20178;-81
2022/12/22 10:07:05;;;;;;;23.65;14.27;;;11.60;99.90;;;;;;5050811;28;20171;-81
2022/12/22 10:09:32;;;;;;;22.90;15.13;;;11.50;99.90;;;;;;5052274;28;20168;-81
2022/12/22 10:12:00;;;;;;;25.08;16.25;;;11.60;99.90;;;;;;5052002;28;20881;-81
2022/12/22 10:14:37;;;;;;;36.00;16.58;;;11.70;99.90;;;;;;5052218;28;20171;-81
2022/12/22 10:17:30;;;;;;;23.73;16.90;;;11.70;99.90;;;;;;5052091;28;20757;-81
2022/12/22 10:20:26;;;;;;;22.75;16.25;;;11.60;99.90;;;;;;5051903;28;20167;-80
2022/12/22 10:22:57;;;;;;;26.73;18.20;;;11.50;99.90;;;;;;5051957;28;20337;-80
2022/12/22 10:25:54;;;;;;;21.77;15.35;;;11.50;99.90;;;;;;5052139;28;20202;-81
2022/12/22 10:28:42;;;;;;;22.25;15.40;;;11.60;99.90;;;;;;5045009;28;20207;-81
2022/12/22 10:31:13;;;;;;;23.83;15.07;;;11.50;99.90;;;;;;5051498;28;20190;-80
2022/12/22 10:33:40;;;;;;;21.58;13.20;;;11.50;99.90;;;;;;5050746;28;20191;-80
2022/12/22 10:36:06;;;;;;;16.38;12.43;;;11.40;99.90;;;;;;5051506;28;20240;-81
2022/12/22 10:38:35;;;;;;;18.98;11.48;;;11.10;99.90;;;;;;5050957;28;20175;-81
2022/12/22 10:41:11;;;;;;;11.88;10.68;;;11.10;99.90;;;;;;5051937;28;20550;-81
2022/12/22 10:43:44;;;;;;;13.18;10.43;;;11.20;99.90;;;;;;5050819;28;20199;-80
2022/12/22 10:46:10;;;;;;;20.42;11.23;;;11.10;99.90;;;;;;5054834;28;20535;-81
2022/12/22 10:48:37;;;;;;;10.55;9.43;;;11.20;99.90;;;;;;5056397;28;20159;-81
2022/12/22 10:51:06;;;;;;;9.93;8.90;;;11.30;99.90;;;;;;5056347;28;20254;-81
2022/12/22 10:53:52;;;;;;;13.13;9.50;;;11.40;99.90;;;;;;5056232;28;20742;-81
2022/12/22 10:56:30;;;;;;;10.80;9.07;;;11.40;99.90;;;;;;5054932;28;20183;-80
2022/12/22 10:59:00;;;;;;;10.60;8.85;;;11.40;99.90;;;;;;5055614;28;20473;-81
2022/12/22 11:01:29;;;;;;;9.95;8.95;;;11.50;99.90;;;;;;5055566;28;20581;-81
2022/12/22 11:03:55;;;;;;;6.72;5.78;;;11.40;99.90;;;;;;5056013;28;20159;-80
2022/12/22 11:06:22;;;;;;;7.13;6.28;;;11.40;99.90;;;;;;5063423;28;20167;-81
2022/12/22 11:08:47;;;;;;;9.38;5.78;;;11.30;99.90;;;;;;5069633;28;20163;-81
2022/12/22 11:11:26;;;;;;;12.45;5.72;;;11.40;99.90;;;;;;5068901;28;20254;-81
2022/12/22 11:14:05;;;;;;;10.52;5.07;;;11.50;99.90;;;;;;5058191;28;20159;-80
2022/12/22 11:16:34;;;;;;;6.88;5.35;;;11.60;99.90;;;;;;5055403;28;20199;-80
2022/12/22 11:19:07;;;;;;;6.10;5.60;;;11.90;99.90;;;;;;5056557;28;20246;-81
2022/12/22 11:21:33;;;;;;;8.38;6.10;;;11.90;99.90;;;;;;5055185;28;20178;-81
2022/12/22 11:24:17;;;;;;;14.02;6.80;;;11.90;99.90;;;;;;5055715;28;20262;-81
2022/12/22 11:26:56;;;;;;;5.95;5.35;;;12.10;99.90;;;;;;5055560;28;20159;-78
2022/12/22 11:29:33;;;;;;;11.93;5.88;;;12.20;99.90;;;;;;5054761;28;20349;-79
2022/12/22 11:32:23;;;;;;;7.35;5.20;;;12.20;99.90;;;;;;5054577;28;20384;-80
2022/12/22 11:35:00;;;;;;;6.00;4.97;;;12.30;99.90;;;;;;5056889;28;20178;-80
2022/12/22 11:37:35;;;;;;;5.00;4.60;;;12.30;99.90;;;;;;5053124;28;20214;-80
2022/12/22 11:40:27;;;;;;;8.13;5.63;;;12.20;99.90;;;;;;5054819;28;20277;-79
2022/12/22 11:43:24;;;;;;;6.35;4.38;;;12.00;99.90;;;;;;5055470;28;20179;-80
2022/12/22 11:46:07;;;;;;;5.47;4.43;;;12.20;99.90;;;;;;5054596;28;20186;-80
2022/12/22 11:48:44;;;;;;;4.00;3.60;;;12.10;99.90;;;;;;5054355;28;20178;-80
2022/12/22 11:51:34;;;;;;;6.00;3.65;;;12.00;99.90;;;;;;5054164;28;20182;-79
2022/12/22 11:54:19;;;;;;;3.80;3.50;;;12.00;99.90;;;;;;5053984;28;20171;-79
2022/12/22 11:56:49;;;;;;;8.88;3.35;;;11.90;99.90;;;;;;5056375;28;20301;-79
2022/12/22 11:59:34;;;;;;;6.18;3.38;;;12.00;99.90;;;;;;5058653;28;20159;-80
2022/12/22 12:02:21;;;;;;;4.05;3.55;;;11.90;99.90;;;;;;5057487;28;20205;-81
2022/12/22 12:05:12;;;;;;;8.13;3.53;;;11.90;99.90;;;;;;5057776;28;20185;-80
2022/12/22 12:07:42;;;;;;;10.75;4.30;;;11.70;99.90;;;;;;5054667;28;20194;-80
2022/12/22 12:10:25;;;;;;;5.25;3.70;;;11.80;99.90;;;;;;5054758;28;20173;-81
2022/12/22 12:13:11;;;;;;;5.20;3.72;;;11.80;99.90;;;;;;5056347;28;20187;-82
2022/12/22 12:15:47;;;;;;;8.00;5.10;;;11.80;99.90;;;;;;5054734;28;20175;-80
2022/12/22 12:18:51;;;;;;;7.30;3.55;;;11.70;99.90;;;;;;5053049;28;20226;-82
2022/12/22 12:21:27;;;;;;;4.90;2.80;;;11.80;99.90;;;;;;5053420;28;20190;-82
2022/12/22 12:24:41;;;;;;;9.02;3.45;;;12.00;99.90;;;;;;5053913;28;20253;-82
2022/12/22 12:27:21;;;;;;;5.68;3.38;;;12.20;99.90;;;;;;5053381;28;20224;-79
2022/12/22 12:30:11;;;;;;;3.60;3.30;;;12.00;99.90;;;;;;5052351;28;20171;-83
2022/12/22 12:33:06;;;;;;;4.70;2.78;;;12.00;99.90;;;;;;5052773;28;20195;-83
2022/12/22 12:35:58;;;;;;;5.88;3.58;;;12.10;99.90;;;;;;5053474;28;20171;-82
2022/12/22 12:38:36;;;;;;;5.68;3.97;;;12.00;99.90;;;;;;5038130;28;20238;-83
2022/12/22 12:41:13;;;;;;;5.78;2.97;;;12.00;99.90;;;;;;5051889;28;20203;-81
2022/12/22 12:43:41;;;;;;;8.40;2.83;;;12.00;99.90;;;;;;4962149;28;20237;-81
2022/12/22 12:46:40;;;;;;;4.00;2.58;;;12.00;99.90;;;;;;4974502;28;20224;-83
2022/12/22 12:49:34;;;;;;;5.25;2.85;;;12.10;99.90;;;;;;4985975;28;20170;-85
2022/12/22 12:52:15;;;;;;;5.72;2.40;;;12.10;99.90;;;;;;4978930;28;20543;-84
2022/12/22 12:54:41;;;;;;;6.63;3.17;;;12.30;99.90;;;;;;4974202;28;20193;-81
2022/12/22 12:57:30;;;;;;;3.67;3.08;;;12.30;99.90;;;;;;4973146;28;20251;-80
2022/12/22 12:59:58;;;;;;;3.45;2.53;;;12.20;99.90;;;;;;4974159;28;20193;-84
2022/12/22 13:02:27;;;;;;;10.38;2.97;;;12.10;99.90;;;;;;4974103;28;20632;-83
2022/12/22 13:05:08;;;;;;;5.80;2.63;;;12.10;99.90;;;;;;4961231;28;20186;-81
2022/12/22 13:08:07;;;;;;;4.40;2.33;;;12.20;99.90;;;;;;4967590;28;20249;-81
2022/12/22 13:10:41;;;;;;;3.75;2.33;;;12.10;99.90;;;;;;4972697;28;20181;-81
2022/12/22 13:13:11;;;;;;;4.00;3.15;;;12.10;99.90;;;;;;4973010;28;20251;-83
2022/12/22 13:15:40;;;;;;;3.55;2.47;;;11.90;99.90;;;;;;4972415;28;20866;-81
2022/12/22 13:18:24;;;;;;;3.22;2.92;;;11.90;99.90;;;;;;4973517;28;20206;-81
2022/12/22 13:20:58;;;;;;;9.73;4.32;;;11.70;99.90;;;;;;4972140;28;20232;-81
2022/12/22 13:23:29;;;;;;;10.40;3.47;;;11.50;99.90;;;;;;4968898;28;20197;-78
2022/12/22 13:26:01;;;;;;;5.03;4.10;;;11.60;99.90;;;;;;4981561;28;20162;-82
2022/12/22 13:28:28;;;;;;;8.98;3.90;;;11.50;99.90;;;;;;4973702;28;20674;-80
2022/12/22 13:31:06;;;;;;;3.20;2.78;;;11.40;99.90;;;;;;4971079;28;20260;-80
2022/12/22 13:33:37;;;;;;;9.57;2.92;;;11.50;99.90;;;;;;4973870;28;20194;-83
2022/12/22 13:36:07;;;;;;;5.90;3.10;;;11.70;99.90;;;;;;4972154;28;20174;-81
2022/12/22 13:38:35;;;;;;;9.38;3.38;;;11.70;99.90;;;;;;4971755;28;20189;-81
2022/12/22 13:41:17;;;;;;;7.95;3.00;;;11.60;99.90;;;;;;4971338;28;20178;-81
2022/12/22 13:43:51;;;;;;;3.28;2.55;;;11.70;99.90;;;;;;4972200;28;20553;-81
2022/12/22 13:46:16;;;;;;;4.80;2.72;;;11.70;99.90;;;;;;4971437;28;20182;-80
2022/12/22 13:48:48;;;;;;;4.40;3.00;;;11.80;99.90;;;;;;4987555;28;20173;-80
2022/12/22 13:51:22;;;;;;;7.20;3.38;;;11.90;99.90;;;;;;4973221;28;20176;-80
2022/12/22 13:53:55;;;;;;;4.25;2.97;;;11.90;99.90;;;;;;4988103;28;20268;-82
2022/12/22 13:56:26;;;;;;;5.30;3.25;;;11.80;99.90;;;;;;4973482;28;20212;-82
2022/12/22 13:58:59;;;;;;;3.25;2.95;;;11.90;99.90;;;;;;4972568;28;20174;-82
2022/12/22 14:01:25;;;;;;;4.35;2.90;;;11.70;99.90;;;;;;4972238;28;20669;-82
2022/12/22 14:03:56;;;;;;;3.97;3.63;;;11.80;99.90;;;;;;4973864;28;20166;-82
2022/12/22 14:06:31;;;;;;;5.68;3.70;;;11.80;99.90;;;;;;4972336;28;20232;-82
2022/12/22 14:09:17;;;;;;;9.13;3.72;;;11.80;99.90;;;;;;4972694;28;20176;-81
2022/12/22 14:11:55;;;;;;;9.02;3.83;;;11.90;99.90;;;;;;4960097;28;20210;-80
2022/12/22 14:14:25;;;;;;;10.50;4.55;;;12.10;99.90;;;;;;4953142;28;20174;-82
2022/12/22 14:16:53;;;;;;;12.20;6.78;;;12.10;99.90;;;;;;4953795;28;20218;-81
2022/12/22 14:19:21;;;;;;;9.05;6.45;;;12.00;99.90;;;;;;4953166;28;20198;-82
2022/12/22 14:21:52;;;;;;;9.93;5.90;;;12.00;99.90;;;;;;4956684;29;20201;-81
2022/12/22 14:24:26;;;;;;;11.23;5.45;;;12.00;99.90;;;;;;4955454;28;20174;-83
2022/12/22 14:26:52;;;;;;;10.25;4.15;;;12.10;99.90;;;;;;4958782;29;20171;-85
2022/12/22 14:29:22;;;;;;;6.35;4.63;;;12.20;99.90;;;;;;4973140;28;20171;-83
2022/12/22 14:31:52;;;;;;;20.15;5.03;;;12.10;99.90;;;;;;4958002;29;20305;-82
2022/12/22 14:34:36;;;;;;;13.00;5.18;;;12.10;99.90;;;;;;4956650;29;20175;-81
2022/12/22 14:37:02;;;;;;;21.13;4.85;;;12.10;99.90;;;;;;4956064;28;20206;-84
2022/12/22 14:39:31;;;;;;;14.38;5.03;;;12.00;99.90;;;;;;4957669;29;20185;-83
2022/12/22 14:42:10;;;;;;;12.05;5.05;;;12.00;99.90;;;;;;4957474;29;20213;-83
2022/12/22 14:44:43;;;;;;;13.68;5.63;;;12.00;99.90;;;;;;4956106;29;20179;-83
2022/12/22 14:47:18;;;;;;;11.43;4.93;;;12.10;99.90;;;;;;4957274;29;20162;-83
2022/12/22 14:49:46;;;;;;;8.85;3.58;;;12.10;99.90;;;;;;4956559;29;20174;-82
2022/12/22 14:52:31;;;;;;;23.30;5.25;;;12.20;99.90;;;;;;4956434;29;20698;-84
2022/12/22 14:54:57;;;;;;;13.00;4.60;;;12.30;99.90;;;;;;4957267;28;20186;-82
2022/12/22 14:57:39;;;;;;;12.25;5.35;;;12.40;99.90;;;;;;4976726;28;20209;-84
2022/12/22 15:00:26;;;;;;;31.27;4.38;;;12.30;99.90;;;;;;4975721;28;20178;-81
2022/12/22 15:02:58;;;;;;;20.83;4.45;;;12.30;99.90;;;;;;4968838;28;20182;-81
2022/12/22 15:05:37;;;;;;;30.17;6.32;;;12.20;99.90;;;;;;4957161;29;20190;-82
2022/12/22 15:08:04;;;;;;;20.75;4.50;;;12.10;99.90;;;;;;4957296;29;20190;-80
2022/12/22 15:10:38;;;;;;;32.90;6.03;;;12.20;99.90;;;;;;4956240;28;20182;-87
2022/12/22 15:13:09;;;;;;;22.20;4.40;;;12.10;99.90;;;;;;4956007;29;20547;-82
2022/12/22 15:15:35;;;;;;;21.35;4.82;;;12.10;99.90;;;;;;4958295;29;20175;-82
2022/12/22 15:18:01;;;;;;;26.75;5.55;;;12.10;99.90;;;;;;4955572;29;20212;-80
2022/12/22 15:20:28;;;;;;;27.23;5.20;;;12.00;99.90;;;;;;4955938;29;20322;-81
2022/12/22 15:22:54;;;;;;;28.60;5.30;;;12.10;99.90;;;;;;4957070;29;20190;-82
2022/12/22 15:25:24;;;;;;;22.13;5.50;;;12.20;99.90;;;;;;4957845;29;20166;-80
2022/12/22 15:27:51;;;;;;;26.67;7.55;;;12.30;99.90;;;;;;4954344;28;20612;-81
2022/12/22 15:30:19;;;;;;;29.35;6.72;;;12.30;99.90;;;;;;4954383;28;20177;-81
2022/12/22 15:32:45;;;;;;;32.75;7.10;;;12.20;99.90;;;;;;4954844;29;20189;-82
2022/12/22 15:35:22;;;;;;;46.13;7.40;;;12.30;99.90;;;;;;4955402;29;20566;-82
2022/12/22 15:37:48;;;;;;;35.75;6.03;;;12.40;99.90;;;;;;4957464;29;20322;-82
2022/12/22 15:40:19;;;;;;;38.55;7.25;;;12.50;99.90;;;;;;4957135;29;20609;-81
2022/12/22 15:42:45;;;;;;;30.90;6.55;;;12.50;99.90;;;;;;4956439;29;20195;-81
2022/12/22 15:45:12;;;;;;;31.52;6.85;;;12.40;99.90;;;;;;4955628;28;20218;-83
2022/12/22 15:47:39;;;;;;;43.45;7.32;;;12.30;99.90;;;;;;4956923;29;20175;-82
2022/12/22 15:50:06;;;;;;;41.03;6.90;;;12.30;99.90;;;;;;4955814;28;20171;-81
2022/12/22 15:52:32;;;;;;;39.25;7.75;;;12.40;99.90;;;;;;4956769;29;20206;-80
2022/12/22 15:54:58;;;;;;;53.15;7.53;;;12.50;99.90;;;;;;4955069;29;20655;-81
2022/12/22 15:57:24;;;;;;;40.20;6.68;;;12.50;99.90;;;;;;4954699;28;20626;-81
2022/12/22 15:59:50;;;;;;;49.30;8.75;;;12.50;99.90;;;;;;4955193;29;21094;-82
2022/12/22 16:02:15;;;;;;;41.85;7.25;;;12.40;99.90;;;;;;4956266;29;20194;-82
2022/12/22 16:04:41;;;;;;;36.53;7.15;;;12.30;99.90;;;;;;4956468;29;20190;-81
2022/12/22 16:07:11;;;;;;;26.33;7.22;;;12.20;99.90;;;;;;4956706;28;20547;-83
2022/12/22 16:09:41;;;;;;;34.47;7.63;;;12.30;99.90;;;;;;4956056;29;20257;-81
2022/12/22 16:12:14;;;;;;;44.03;8.10;;;12.30;99.90;;;;;;4955056;29;20201;-82
2022/12/22 16:14:42;;;;;;;44.90;8.43;;;12.40;99.90;;;;;;4954642;29;20210;-80
2022/12/22 16:17:23;;;;;;;40.67;8.13;;;12.30;99.90;;;;;;4956293;29;20218;-81
2022/12/22 16:19:48;;;;;;;32.50;6.75;;;12.30;99.90;;;;;;4956075;29;20229;-82
2022/12/22 16:22:17;;;;;;;33.25;7.07;;;12.20;99.90;;;;;;4957533;29;20190;-82
2022/12/22 16:24:45;;;;;;;48.08;8.65;;;12.10;99.90;;;;;;4955334;28;20178;-83
2022/12/22 16:27:12;;;;;;;64.47;10.05;;;12.10;99.90;;;;;;4955897;29;20170;-82
2022/12/22 16:29:39;;;;;;;41.97;7.40;;;12.20;99.90;;;;;;4956039;28;20169;-84
2022/12/22 16:32:16;;;;;;;53.67;9.15;;;12.20;99.90;;;;;;4956133;29;20679;-84
2022/12/22 16:34:42;;;;;;;43.28;10.18;;;12.30;99.90;;;;;;4955571;29;20528;-83
2022/12/22 16:37:08;;;;;;;50.65;9.60;;;12.20;99.90;;;;;;4956147;28;20206;-82